sensor_id;sensor_type;location;lat;lon;timestamp;P1;durP1;ratioP1;P2;durP2;ratioP2
41927;SDS011;27616;51.420;6.788;2023-12-20T00:00:20;15.70;;;5.23;;
41927;SDS011;27616;51.420;6.788;2023-12-20T00:02:45;13.93;;;5.13;;
41927;SDS011;27616;51.420;6.788;2023-12-20T00:05:12;16.20;;;4.63;;
41927;SDS011;27616;51.420;6.788;2023-12-20T00:07:39;13.40;;;4.57;;
41927;SDS011;27616;51.420;6.788;2023-12-20T00:10:05;15.53;;;5.77;;
41927;SDS011;27616;51.420;6.788;2023-12-20T00:12:30;18.57;;;5.17;;
41927;SDS011;27616;51.420;6.788;2023-12-20T00:14:56;14.63;;;4.90;;
41927;SDS011;27616;51.420;6.788;2023-12-20T00:17:21;13.00;;;4.73;;
41927;SDS011;27616;51.420;6.788;2023-12-20T00:19:47;15.93;;;5.07;;
41927;SDS011;27616;51.420;6.788;2023-12-20T00:22:13;15.80;;;5.97;;
41927;SDS011;27616;51.420;6.788;2023-12-20T00:24:38;16.10;;;5.20;;
41927;SDS011;27616;51.420;6.788;2023-12-20T00:27:04;12.47;;;4.80;;
41927;SDS011;27616;51.420;6.788;2023-12-20T00:29:29;17.90;;;5.97;;
41927;SDS011;27616;51.420;6.788;2023-12-20T00:31:55;11.53;;;4.93;;
41927;SDS011;27616;51.420;6.788;2023-12-20T00:34:21;18.00;;;4.90;;
41927;SDS011;27616;51.420;6.788;2023-12-20T00:36:46;14.80;;;4.50;;
41927;SDS011;27616;51.420;6.788;2023-12-20T00:39:12;15.43;;;4.93;;
41927;SDS011;27616;51.420;6.788;2023-12-20T00:41:38;13.33;;;4.23;;
41927;SDS011;27616;51.420;6.788;2023-12-20T00:44:03;18.10;;;4.50;;
41927;SDS011;27616;51.420;6.788;2023-12-20T00:46:29;13.13;;;3.87;;
41927;SDS011;27616;51.420;6.788;2023-12-20T00:48:54;13.67;;;4.80;;
41927;SDS011;27616;51.420;6.788;2023-12-20T00:51:20;12.53;;;4.70;;
41927;SDS011;27616;51.420;6.788;2023-12-20T00:53:47;14.63;;;4.60;;
41927;SDS011;27616;51.420;6.788;2023-12-20T00:56:14;14.20;;;4.40;;
41927;SDS011;27616;51.420;6.788;2023-12-20T00:58:40;13.47;;;4.57;;
41927;SDS011;27616;51.420;6.788;2023-12-20T01:01:05;11.20;;;4.07;;
41927;SDS011;27616;51.420;6.788;2023-12-20T01:03:31;13.50;;;4.70;;
41927;SDS011;27616;51.420;6.788;2023-12-20T01:05:56;12.03;;;4.13;;
41927;SDS011;27616;51.420;6.788;2023-12-20T01:08:22;12.90;;;5.30;;
41927;SDS011;27616;51.420;6.788;2023-12-20T01:10:48;10.90;;;4.70;;
41927;SDS011;27616;51.420;6.788;2023-12-20T01:13:13;13.47;;;4.90;;
41927;SDS011;27616;51.420;6.788;2023-12-20T01:15:39;13.30;;;4.20;;
41927;SDS011;27616;51.420;6.788;2023-12-20T01:18:04;15.13;;;5.17;;
41927;SDS011;27616;51.420;6.788;2023-12-20T01:20:30;13.37;;;4.83;;
41927;SDS011;27616;51.420;6.788;2023-12-20T01:22:56;12.43;;;5.30;;
41927;SDS011;27616;51.420;6.788;2023-12-20T01:25:21;17.53;;;5.30;;
41927;SDS011;27616;51.420;6.788;2023-12-20T01:27:47;14.00;;;5.60;;
41927;SDS011;27616;51.420;6.788;2023-12-20T01:30:13;15.57;;;4.70;;
41927;SDS011;27616;51.420;6.788;2023-12-20T01:32:39;12.53;;;5.10;;
41927;SDS011;27616;51.420;6.788;2023-12-20T01:35:05;15.10;;;5.23;;
41927;SDS011;27616;51.420;6.788;2023-12-20T01:37:31;12.00;;;4.97;;
41927;SDS011;27616;51.420;6.788;2023-12-20T01:39:57;15.00;;;4.60;;
41927;SDS011;27616;51.420;6.788;2023-12-20T01:42:23;14.67;;;4.30;;
41927;SDS011;27616;51.420;6.788;2023-12-20T01:44:49;14.70;;;4.57;;
41927;SDS011;27616;51.420;6.788;2023-12-20T01:47:15;13.73;;;4.57;;
41927;SDS011;27616;51.420;6.788;2023-12-20T01:49:41;11.10;;;4.57;;
41927;SDS011;27616;51.420;6.788;2023-12-20T01:52:07;12.13;;;4.33;;
41927;SDS011;27616;51.420;6.788;2023-12-20T01:54:33;9.60;;;4.20;;
41927;SDS011;27616;51.420;6.788;2023-12-20T01:57:00;10.13;;;4.30;;
41927;SDS011;27616;51.420;6.788;2023-12-20T01:59:26;15.57;;;4.53;;
41927;SDS011;27616;51.420;6.788;2023-12-20T02:01:54;9.87;;;4.03;;
41927;SDS011;27616;51.420;6.788;2023-12-20T02:04:19;10.07;;;4.40;;
41927;SDS011;27616;51.420;6.788;2023-12-20T02:06:45;12.87;;;3.93;;
41927;SDS011;27616;51.420;6.788;2023-12-20T02:09:11;14.63;;;4.80;;
41927;SDS011;27616;51.420;6.788;2023-12-20T02:11:37;13.30;;;4.27;;
41927;SDS011;27616;51.420;6.788;2023-12-20T02:14:03;11.97;;;4.70;;
41927;SDS011;27616;51.420;6.788;2023-12-20T02:16:28;13.20;;;4.47;;
41927;SDS011;27616;51.420;6.788;2023-12-20T02:18:54;11.37;;;4.93;;
41927;SDS011;27616;51.420;6.788;2023-12-20T02:21:41;11.67;;;4.53;;
41927;SDS011;27616;51.420;6.788;2023-12-20T02:24:06;12.87;;;4.53;;
41927;SDS011;27616;51.420;6.788;2023-12-20T02:26:32;8.90;;;4.03;;
41927;SDS011;27616;51.420;6.788;2023-12-20T02:28:58;10.33;;;3.80;;
41927;SDS011;27616;51.420;6.788;2023-12-20T02:31:24;12.70;;;3.43;;
41927;SDS011;27616;51.420;6.788;2023-12-20T02:33:50;10.50;;;5.00;;
41927;SDS011;27616;51.420;6.788;2023-12-20T02:36:15;9.00;;;3.80;;
41927;SDS011;27616;51.420;6.788;2023-12-20T02:38:41;9.83;;;3.53;;
41927;SDS011;27616;51.420;6.788;2023-12-20T02:41:06;12.20;;;4.30;;
41927;SDS011;27616;51.420;6.788;2023-12-20T02:43:32;13.57;;;4.53;;
41927;SDS011;27616;51.420;6.788;2023-12-20T02:45:57;14.03;;;4.23;;
41927;SDS011;27616;51.420;6.788;2023-12-20T02:48:23;16.73;;;3.77;;
41927;SDS011;27616;51.420;6.788;2023-12-20T02:50:49;11.47;;;3.63;;
41927;SDS011;27616;51.420;6.788;2023-12-20T02:53:14;14.27;;;3.77;;
41927;SDS011;27616;51.420;6.788;2023-12-20T02:55:40;10.43;;;3.63;;
41927;SDS011;27616;51.420;6.788;2023-12-20T02:58:05;9.93;;;3.23;;
41927;SDS011;27616;51.420;6.788;2023-12-20T03:00:31;11.20;;;3.47;;
41927;SDS011;27616;51.420;6.788;2023-12-20T03:02:57;11.30;;;3.50;;
41927;SDS011;27616;51.420;6.788;2023-12-20T03:05:24;14.50;;;3.70;;
41927;SDS011;27616;51.420;6.788;2023-12-20T03:07:50;9.67;;;3.40;;
41927;SDS011;27616;51.420;6.788;2023-12-20T03:10:16;12.23;;;3.57;;
41927;SDS011;27616;51.420;6.788;2023-12-20T03:12:43;12.07;;;3.00;;
41927;SDS011;27616;51.420;6.788;2023-12-20T03:15:09;10.60;;;2.57;;
41927;SDS011;27616;51.420;6.788;2023-12-20T03:17:35;8.53;;;2.90;;
41927;SDS011;27616;51.420;6.788;2023-12-20T03:20:00;6.87;;;2.37;;
41927;SDS011;27616;51.420;6.788;2023-12-20T03:22:26;11.23;;;3.53;;
41927;SDS011;27616;51.420;6.788;2023-12-20T03:24:52;10.27;;;3.43;;
41927;SDS011;27616;51.420;6.788;2023-12-20T03:27:17;6.60;;;2.00;;
41927;SDS011;27616;51.420;6.788;2023-12-20T03:29:43;8.37;;;1.77;;
41927;SDS011;27616;51.420;6.788;2023-12-20T03:32:08;6.90;;;2.23;;
41927;SDS011;27616;51.420;6.788;2023-12-20T03:34:34;5.07;;;1.50;;
41927;SDS011;27616;51.420;6.788;2023-12-20T03:37:00;7.00;;;1.70;;
41927;SDS011;27616;51.420;6.788;2023-12-20T03:39:25;8.00;;;1.80;;
41927;SDS011;27616;51.420;6.788;2023-12-20T03:41:51;5.57;;;2.23;;
41927;SDS011;27616;51.420;6.788;2023-12-20T03:44:16;8.57;;;2.13;;
41927;SDS011;27616;51.420;6.788;2023-12-20T03:46:42;11.00;;;1.93;;
41927;SDS011;27616;51.420;6.788;2023-12-20T03:49:08;11.23;;;2.10;;
41927;SDS011;27616;51.420;6.788;2023-12-20T03:51:33;8.50;;;1.57;;
41927;SDS011;27616;51.420;6.788;2023-12-20T03:53:59;10.93;;;1.93;;
41927;SDS011;27616;51.420;6.788;2023-12-20T03:56:24;6.63;;;1.60;;
41927;SDS011;27616;51.420;6.788;2023-12-20T03:58:50;7.10;;;1.73;;
41927;SDS011;27616;51.420;6.788;2023-12-20T04:01:15;4.63;;;1.57;;
41927;SDS011;27616;51.420;6.788;2023-12-20T04:03:41;9.50;;;1.47;;
41927;SDS011;27616;51.420;6.788;2023-12-20T04:06:06;3.30;;;1.20;;
41927;SDS011;27616;51.420;6.788;2023-12-20T04:08:32;5.57;;;1.70;;
41927;SDS011;27616;51.420;6.788;2023-12-20T04:10:58;7.17;;;1.50;;
41927;SDS011;27616;51.420;6.788;2023-12-20T04:13:23;7.00;;;1.90;;
41927;SDS011;27616;51.420;6.788;2023-12-20T04:15:49;9.23;;;1.83;;
41927;SDS011;27616;51.420;6.788;2023-12-20T04:18:16;8.47;;;1.80;;
41927;SDS011;27616;51.420;6.788;2023-12-20T04:20:41;7.60;;;1.67;;
41927;SDS011;27616;51.420;6.788;2023-12-20T04:23:07;13.97;;;1.93;;
41927;SDS011;27616;51.420;6.788;2023-12-20T04:25:33;6.60;;;1.80;;
41927;SDS011;27616;51.420;6.788;2023-12-20T04:27:59;8.83;;;1.80;;
41927;SDS011;27616;51.420;6.788;2023-12-20T04:30:25;9.90;;;2.03;;
41927;SDS011;27616;51.420;6.788;2023-12-20T04:32:50;9.33;;;1.93;;
41927;SDS011;27616;51.420;6.788;2023-12-20T04:35:16;5.93;;;1.90;;
41927;SDS011;27616;51.420;6.788;2023-12-20T04:37:41;8.00;;;2.00;;
41927;SDS011;27616;51.420;6.788;2023-12-20T04:40:07;12.63;;;1.70;;
41927;SDS011;27616;51.420;6.788;2023-12-20T04:42:33;11.97;;;2.50;;
41927;SDS011;27616;51.420;6.788;2023-12-20T04:44:59;10.13;;;2.30;;
41927;SDS011;27616;51.420;6.788;2023-12-20T04:47:24;12.20;;;2.53;;
41927;SDS011;27616;51.420;6.788;2023-12-20T04:49:50;7.17;;;2.70;;
41927;SDS011;27616;51.420;6.788;2023-12-20T04:52:15;6.40;;;2.00;;
41927;SDS011;27616;51.420;6.788;2023-12-20T04:54:41;11.23;;;2.33;;
41927;SDS011;27616;51.420;6.788;2023-12-20T04:57:07;12.30;;;2.83;;
41927;SDS011;27616;51.420;6.788;2023-12-20T04:59:32;6.40;;;2.40;;
41927;SDS011;27616;51.420;6.788;2023-12-20T05:01:58;7.50;;;2.50;;
41927;SDS011;27616;51.420;6.788;2023-12-20T05:04:23;8.50;;;2.67;;
41927;SDS011;27616;51.420;6.788;2023-12-20T05:06:49;6.37;;;2.80;;
41927;SDS011;27616;51.420;6.788;2023-12-20T05:09:15;13.67;;;3.57;;
41927;SDS011;27616;51.420;6.788;2023-12-20T05:11:41;11.00;;;3.23;;
41927;SDS011;27616;51.420;6.788;2023-12-20T05:14:06;10.30;;;2.50;;
41927;SDS011;27616;51.420;6.788;2023-12-20T05:16:32;9.93;;;2.27;;
41927;SDS011;27616;51.420;6.788;2023-12-20T05:18:58;9.97;;;3.40;;
41927;SDS011;27616;51.420;6.788;2023-12-20T05:21:25;9.43;;;3.20;;
41927;SDS011;27616;51.420;6.788;2023-12-20T05:23:51;8.03;;;3.07;;
41927;SDS011;27616;51.420;6.788;2023-12-20T05:26:17;13.53;;;2.80;;
41927;SDS011;27616;51.420;6.788;2023-12-20T05:28:43;14.67;;;4.43;;
41927;SDS011;27616;51.420;6.788;2023-12-20T05:31:09;11.10;;;2.47;;
41927;SDS011;27616;51.420;6.788;2023-12-20T05:33:34;8.60;;;3.33;;
41927;SDS011;27616;51.420;6.788;2023-12-20T05:36:00;12.27;;;2.73;;
41927;SDS011;27616;51.420;6.788;2023-12-20T05:38:26;9.03;;;2.60;;
41927;SDS011;27616;51.420;6.788;2023-12-20T05:40:51;10.00;;;3.67;;
41927;SDS011;27616;51.420;6.788;2023-12-20T05:43:17;8.77;;;2.80;;
41927;SDS011;27616;51.420;6.788;2023-12-20T05:45:42;8.53;;;2.87;;
41927;SDS011;27616;51.420;6.788;2023-12-20T05:48:08;8.20;;;3.03;;
41927;SDS011;27616;51.420;6.788;2023-12-20T05:50:33;12.17;;;2.83;;
41927;SDS011;27616;51.420;6.788;2023-12-20T05:53:00;9.33;;;2.73;;
41927;SDS011;27616;51.420;6.788;2023-12-20T05:55:25;12.07;;;3.23;;
41927;SDS011;27616;51.420;6.788;2023-12-20T05:57:51;15.47;;;3.93;;
41927;SDS011;27616;51.420;6.788;2023-12-20T06:00:17;11.67;;;3.43;;
41927;SDS011;27616;51.420;6.788;2023-12-20T06:02:43;8.87;;;2.90;;
41927;SDS011;27616;51.420;6.788;2023-12-20T06:05:08;8.93;;;2.73;;
41927;SDS011;27616;51.420;6.788;2023-12-20T06:07:34;13.27;;;2.70;;
41927;SDS011;27616;51.420;6.788;2023-12-20T06:09:59;13.63;;;3.50;;
41927;SDS011;27616;51.420;6.788;2023-12-20T06:12:25;8.20;;;3.10;;
41927;SDS011;27616;51.420;6.788;2023-12-20T06:14:52;11.07;;;2.77;;
41927;SDS011;27616;51.420;6.788;2023-12-20T06:17:18;11.97;;;3.27;;
41927;SDS011;27616;51.420;6.788;2023-12-20T06:19:43;6.07;;;2.50;;
41927;SDS011;27616;51.420;6.788;2023-12-20T06:22:13;10.07;;;3.70;;
41927;SDS011;27616;51.420;6.788;2023-12-20T06:24:39;13.33;;;2.90;;
41927;SDS011;27616;51.420;6.788;2023-12-20T06:27:04;12.53;;;3.23;;
41927;SDS011;27616;51.420;6.788;2023-12-20T06:29:30;9.20;;;3.17;;
41927;SDS011;27616;51.420;6.788;2023-12-20T06:31:56;17.90;;;3.17;;
41927;SDS011;27616;51.420;6.788;2023-12-20T06:34:21;12.73;;;2.80;;
41927;SDS011;27616;51.420;6.788;2023-12-20T06:36:48;15.00;;;3.60;;
41927;SDS011;27616;51.420;6.788;2023-12-20T06:39:13;10.70;;;2.40;;
41927;SDS011;27616;51.420;6.788;2023-12-20T06:41:39;12.47;;;3.43;;
41927;SDS011;27616;51.420;6.788;2023-12-20T06:44:05;14.70;;;2.50;;
41927;SDS011;27616;51.420;6.788;2023-12-20T06:46:30;16.27;;;3.90;;
41927;SDS011;27616;51.420;6.788;2023-12-20T06:48:56;16.77;;;3.50;;
41927;SDS011;27616;51.420;6.788;2023-12-20T06:51:22;18.90;;;3.27;;
41927;SDS011;27616;51.420;6.788;2023-12-20T06:53:50;8.43;;;2.67;;
41927;SDS011;27616;51.420;6.788;2023-12-20T06:56:16;9.03;;;3.03;;
41927;SDS011;27616;51.420;6.788;2023-12-20T06:58:42;13.87;;;3.10;;
41927;SDS011;27616;51.420;6.788;2023-12-20T07:01:14;10.40;;;3.13;;
41927;SDS011;27616;51.420;6.788;2023-12-20T07:03:40;10.80;;;3.37;;
41927;SDS011;27616;51.420;6.788;2023-12-20T07:06:06;14.60;;;2.70;;
41927;SDS011;27616;51.420;6.788;2023-12-20T07:08:32;6.70;;;2.57;;
41927;SDS011;27616;51.420;6.788;2023-12-20T07:10:58;11.40;;;2.47;;
41927;SDS011;27616;51.420;6.788;2023-12-20T07:13:23;9.00;;;2.70;;
41927;SDS011;27616;51.420;6.788;2023-12-20T07:15:49;13.73;;;3.03;;
41927;SDS011;27616;51.420;6.788;2023-12-20T07:18:15;9.00;;;2.30;;
41927;SDS011;27616;51.420;6.788;2023-12-20T07:20:42;9.93;;;2.83;;
41927;SDS011;27616;51.420;6.788;2023-12-20T07:23:08;9.47;;;2.70;;
41927;SDS011;27616;51.420;6.788;2023-12-20T07:25:34;7.63;;;2.77;;
41927;SDS011;27616;51.420;6.788;2023-12-20T07:27:59;9.03;;;2.40;;
41927;SDS011;27616;51.420;6.788;2023-12-20T07:30:25;14.07;;;3.10;;
41927;SDS011;27616;51.420;6.788;2023-12-20T07:32:50;13.03;;;2.53;;
41927;SDS011;27616;51.420;6.788;2023-12-20T07:35:17;15.83;;;3.33;;
41927;SDS011;27616;51.420;6.788;2023-12-20T07:37:43;10.10;;;3.00;;
41927;SDS011;27616;51.420;6.788;2023-12-20T07:40:09;5.70;;;1.70;;
41927;SDS011;27616;51.420;6.788;2023-12-20T07:42:35;11.97;;;2.80;;
41927;SDS011;27616;51.420;6.788;2023-12-20T07:45:00;10.87;;;3.17;;
41927;SDS011;27616;51.420;6.788;2023-12-20T07:47:26;15.67;;;2.50;;
41927;SDS011;27616;51.420;6.788;2023-12-20T07:49:52;7.93;;;2.60;;
41927;SDS011;27616;51.420;6.788;2023-12-20T07:52:18;12.03;;;2.77;;
41927;SDS011;27616;51.420;6.788;2023-12-20T07:54:44;13.13;;;2.50;;
41927;SDS011;27616;51.420;6.788;2023-12-20T07:57:10;7.67;;;2.43;;
41927;SDS011;27616;51.420;6.788;2023-12-20T07:59:36;15.63;;;3.53;;
41927;SDS011;27616;51.420;6.788;2023-12-20T08:02:02;9.87;;;3.27;;
41927;SDS011;27616;51.420;6.788;2023-12-20T08:04:28;10.73;;;2.97;;
41927;SDS011;27616;51.420;6.788;2023-12-20T08:06:54;11.93;;;2.57;;
41927;SDS011;27616;51.420;6.788;2023-12-20T08:09:20;15.80;;;3.97;;
41927;SDS011;27616;51.420;6.788;2023-12-20T08:11:49;9.90;;;3.23;;
41927;SDS011;27616;51.420;6.788;2023-12-20T08:14:15;5.78;;;2.45;;
41927;SDS011;27616;51.420;6.788;2023-12-20T08:16:41;12.97;;;3.73;;
41927;SDS011;27616;51.420;6.788;2023-12-20T08:19:06;10.93;;;2.90;;
41927;SDS011;27616;51.420;6.788;2023-12-20T08:21:32;13.07;;;3.10;;
41927;SDS011;27616;51.420;6.788;2023-12-20T08:23:58;12.17;;;3.53;;
41927;SDS011;27616;51.420;6.788;2023-12-20T08:26:25;8.03;;;3.07;;
41927;SDS011;27616;51.420;6.788;2023-12-20T08:28:51;13.70;;;3.00;;
41927;SDS011;27616;51.420;6.788;2023-12-20T08:31:17;16.43;;;3.30;;
41927;SDS011;27616;51.420;6.788;2023-12-20T08:33:43;9.87;;;3.00;;
41927;SDS011;27616;51.420;6.788;2023-12-20T08:36:10;12.90;;;3.13;;
41927;SDS011;27616;51.420;6.788;2023-12-20T08:38:36;11.67;;;3.03;;
41927;SDS011;27616;51.420;6.788;2023-12-20T08:41:02;10.90;;;2.93;;
41927;SDS011;27616;51.420;6.788;2023-12-20T08:43:30;10.47;;;3.80;;
41927;SDS011;27616;51.420;6.788;2023-12-20T08:45:59;10.20;;;2.58;;
41927;SDS011;27616;51.420;6.788;2023-12-20T08:48:24;8.87;;;2.23;;
41927;SDS011;27616;51.420;6.788;2023-12-20T08:50:50;8.47;;;2.07;;
41927;SDS011;27616;51.420;6.788;2023-12-20T08:53:17;11.17;;;2.50;;
41927;SDS011;27616;51.420;6.788;2023-12-20T08:55:43;9.60;;;2.43;;
41927;SDS011;27616;51.420;6.788;2023-12-20T08:58:09;9.93;;;2.73;;
41927;SDS011;27616;51.420;6.788;2023-12-20T09:00:35;5.53;;;1.80;;
41927;SDS011;27616;51.420;6.788;2023-12-20T09:03:01;9.13;;;2.30;;
41927;SDS011;27616;51.420;6.788;2023-12-20T09:05:27;9.17;;;2.47;;
41927;SDS011;27616;51.420;6.788;2023-12-20T09:07:53;10.17;;;2.53;;
41927;SDS011;27616;51.420;6.788;2023-12-20T09:10:19;13.57;;;2.23;;
41927;SDS011;27616;51.420;6.788;2023-12-20T09:12:50;11.30;;;2.67;;
41927;SDS011;27616;51.420;6.788;2023-12-20T09:15:19;4.00;;;1.57;;
41927;SDS011;27616;51.420;6.788;2023-12-20T09:17:44;11.13;;;2.13;;
41927;SDS011;27616;51.420;6.788;2023-12-20T09:20:10;8.83;;;2.00;;
41927;SDS011;27616;51.420;6.788;2023-12-20T09:22:36;8.80;;;2.40;;
41927;SDS011;27616;51.420;6.788;2023-12-20T09:25:03;13.73;;;2.93;;
41927;SDS011;27616;51.420;6.788;2023-12-20T09:27:29;7.20;;;2.00;;
41927;SDS011;27616;51.420;6.788;2023-12-20T09:29:55;8.27;;;2.70;;
41927;SDS011;27616;51.420;6.788;2023-12-20T09:32:20;7.70;;;2.10;;
41927;SDS011;27616;51.420;6.788;2023-12-20T09:34:47;10.80;;;2.60;;
41927;SDS011;27616;51.420;6.788;2023-12-20T09:37:13;4.87;;;1.73;;
41927;SDS011;27616;51.420;6.788;2023-12-20T09:39:38;5.50;;;1.90;;
41927;SDS011;27616;51.420;6.788;2023-12-20T09:42:04;12.93;;;2.60;;
41927;SDS011;27616;51.420;6.788;2023-12-20T09:44:31;6.63;;;2.10;;
41927;SDS011;27616;51.420;6.788;2023-12-20T09:47:05;10.13;;;2.10;;
41927;SDS011;27616;51.420;6.788;2023-12-20T09:49:32;8.27;;;2.30;;
41927;SDS011;27616;51.420;6.788;2023-12-20T09:51:58;8.13;;;2.70;;
41927;SDS011;27616;51.420;6.788;2023-12-20T09:54:26;10.10;;;2.67;;
41927;SDS011;27616;51.420;6.788;2023-12-20T09:56:53;11.47;;;2.13;;
41927;SDS011;27616;51.420;6.788;2023-12-20T09:59:19;10.67;;;2.47;;
41927;SDS011;27616;51.420;6.788;2023-12-20T10:01:45;10.30;;;2.73;;
41927;SDS011;27616;51.420;6.788;2023-12-20T10:04:11;12.83;;;2.40;;
41927;SDS011;27616;51.420;6.788;2023-12-20T10:06:41;5.93;;;1.97;;
41927;SDS011;27616;51.420;6.788;2023-12-20T10:09:07;6.07;;;2.53;;
41927;SDS011;27616;51.420;6.788;2023-12-20T10:11:37;7.15;;;2.08;;
41927;SDS011;27616;51.420;6.788;2023-12-20T10:14:04;7.23;;;1.63;;
41927;SDS011;27616;51.420;6.788;2023-12-20T10:16:30;8.57;;;2.10;;
41927;SDS011;27616;51.420;6.788;2023-12-20T10:18:56;9.07;;;2.07;;
41927;SDS011;27616;51.420;6.788;2023-12-20T10:21:22;14.23;;;2.67;;
41927;SDS011;27616;51.420;6.788;2023-12-20T10:23:49;12.87;;;1.73;;
41927;SDS011;27616;51.420;6.788;2023-12-20T10:26:25;9.20;;;2.83;;
41927;SDS011;27616;51.420;6.788;2023-12-20T10:28:54;6.20;;;2.30;;
41927;SDS011;27616;51.420;6.788;2023-12-20T10:31:42;7.70;;;2.30;;
41927;SDS011;27616;51.420;6.788;2023-12-20T10:34:07;7.17;;;1.97;;
41927;SDS011;27616;51.420;6.788;2023-12-20T10:36:33;9.60;;;2.70;;
41927;SDS011;27616;51.420;6.788;2023-12-20T10:38:59;10.17;;;2.30;;
41927;SDS011;27616;51.420;6.788;2023-12-20T10:41:29;12.97;;;3.30;;
41927;SDS011;27616;51.420;6.788;2023-12-20T10:44:03;10.20;;;2.07;;
41927;SDS011;27616;51.420;6.788;2023-12-20T10:46:33;9.73;;;2.33;;
41927;SDS011;27616;51.420;6.788;2023-12-20T10:48:59;12.60;;;2.50;;
41927;SDS011;27616;51.420;6.788;2023-12-20T10:51:27;7.97;;;2.23;;
41927;SDS011;27616;51.420;6.788;2023-12-20T10:53:55;4.23;;;1.77;;
41927;SDS011;27616;51.420;6.788;2023-12-20T10:56:21;13.10;;;2.73;;
41927;SDS011;27616;51.420;6.788;2023-12-20T10:58:48;6.90;;;2.27;;
41927;SDS011;27616;51.420;6.788;2023-12-20T11:01:16;9.70;;;2.50;;
41927;SDS011;27616;51.420;6.788;2023-12-20T11:03:49;9.80;;;2.50;;
41927;SDS011;27616;51.420;6.788;2023-12-20T11:17:07;10.03;;;2.10;;
41927;SDS011;27616;51.420;6.788;2023-12-20T11:22:22;9.60;;;2.20;;
41927;SDS011;27616;51.420;6.788;2023-12-20T11:24:53;8.70;;;2.53;;
41927;SDS011;27616;51.420;6.788;2023-12-20T11:27:20;12.93;;;2.53;;
41927;SDS011;27616;51.420;6.788;2023-12-20T11:29:52;9.33;;;2.17;;
41927;SDS011;27616;51.420;6.788;2023-12-20T11:34:55;11.10;;;2.53;;
41927;SDS011;27616;51.420;6.788;2023-12-20T11:37:28;9.90;;;2.00;;
41927;SDS011;27616;51.420;6.788;2023-12-20T11:40:02;9.80;;;3.03;;
41927;SDS011;27616;51.420;6.788;2023-12-20T11:42:41;6.10;;;2.43;;
41927;SDS011;27616;51.420;6.788;2023-12-20T11:45:08;7.33;;;2.23;;
41927;SDS011;27616;51.420;6.788;2023-12-20T11:47:47;7.45;;;1.90;;
41927;SDS011;27616;51.420;6.788;2023-12-20T11:50:15;14.07;;;3.20;;
41927;SDS011;27616;51.420;6.788;2023-12-20T11:52:41;7.30;;;2.63;;
41927;SDS011;27616;51.420;6.788;2023-12-20T11:55:06;11.00;;;2.60;;
41927;SDS011;27616;51.420;6.788;2023-12-20T11:57:33;12.50;;;3.17;;
41927;SDS011;27616;51.420;6.788;2023-12-20T11:59:59;6.80;;;2.63;;
41927;SDS011;27616;51.420;6.788;2023-12-20T12:02:24;9.53;;;2.63;;
41927;SDS011;27616;51.420;6.788;2023-12-20T12:04:50;9.80;;;2.60;;
41927;SDS011;27616;51.420;6.788;2023-12-20T12:07:16;9.57;;;2.40;;
41927;SDS011;27616;51.420;6.788;2023-12-20T12:09:42;9.77;;;2.90;;
41927;SDS011;27616;51.420;6.788;2023-12-20T12:12:09;4.93;;;2.10;;
41927;SDS011;27616;51.420;6.788;2023-12-20T12:14:35;7.97;;;2.40;;
41927;SDS011;27616;51.420;6.788;2023-12-20T12:17:02;6.77;;;2.07;;
41927;SDS011;27616;51.420;6.788;2023-12-20T12:19:29;11.00;;;2.30;;
41927;SDS011;27616;51.420;6.788;2023-12-20T12:24:34;10.10;;;2.57;;
41927;SDS011;27616;51.420;6.788;2023-12-20T12:26:59;12.00;;;2.43;;
41927;SDS011;27616;51.420;6.788;2023-12-20T12:29:25;12.77;;;2.60;;
41927;SDS011;27616;51.420;6.788;2023-12-20T12:31:52;14.27;;;3.13;;
41927;SDS011;27616;51.420;6.788;2023-12-20T12:34:18;8.30;;;2.40;;
41927;SDS011;27616;51.420;6.788;2023-12-20T12:36:43;16.47;;;3.30;;
41927;SDS011;27616;51.420;6.788;2023-12-20T12:39:14;7.73;;;2.10;;
41927;SDS011;27616;51.420;6.788;2023-12-20T12:41:40;11.53;;;2.33;;
41927;SDS011;27616;51.420;6.788;2023-12-20T12:44:06;8.70;;;2.27;;
41927;SDS011;27616;51.420;6.788;2023-12-20T12:46:32;28.10;;;12.50;;
41927;SDS011;27616;51.420;6.788;2023-12-20T12:48:58;7.87;;;3.33;;
41927;SDS011;27616;51.420;6.788;2023-12-20T12:51:23;9.77;;;2.60;;
41927;SDS011;27616;51.420;6.788;2023-12-20T12:53:49;10.13;;;2.90;;
41927;SDS011;27616;51.420;6.788;2023-12-20T12:56:14;10.13;;;3.07;;
41927;SDS011;27616;51.420;6.788;2023-12-20T12:58:40;11.23;;;2.60;;
41927;SDS011;27616;51.420;6.788;2023-12-20T13:01:06;12.93;;;2.67;;
41927;SDS011;27616;51.420;6.788;2023-12-20T13:03:32;10.60;;;2.97;;
41927;SDS011;27616;51.420;6.788;2023-12-20T13:05:59;11.30;;;2.70;;
41927;SDS011;27616;51.420;6.788;2023-12-20T13:08:24;6.03;;;3.00;;
41927;SDS011;27616;51.420;6.788;2023-12-20T13:10:50;10.23;;;2.93;;
41927;SDS011;27616;51.420;6.788;2023-12-20T13:13:16;8.10;;;2.97;;
41927;SDS011;27616;51.420;6.788;2023-12-20T13:15:41;8.90;;;2.60;;
41927;SDS011;27616;51.420;6.788;2023-12-20T13:18:07;10.77;;;3.13;;
41927;SDS011;27616;51.420;6.788;2023-12-20T13:20:33;6.70;;;2.47;;
41927;SDS011;27616;51.420;6.788;2023-12-20T13:22:58;11.37;;;3.17;;
41927;SDS011;27616;51.420;6.788;2023-12-20T13:25:24;7.27;;;2.90;;
41927;SDS011;27616;51.420;6.788;2023-12-20T13:27:50;7.70;;;3.30;;
41927;SDS011;27616;51.420;6.788;2023-12-20T13:30:18;9.73;;;2.87;;
41927;SDS011;27616;51.420;6.788;2023-12-20T13:32:44;6.10;;;3.25;;
41927;SDS011;27616;51.420;6.788;2023-12-20T13:35:09;14.13;;;3.30;;
41927;SDS011;27616;51.420;6.788;2023-12-20T13:37:35;8.57;;;2.63;;
41927;SDS011;27616;51.420;6.788;2023-12-20T13:40:01;7.07;;;2.70;;
41927;SDS011;27616;51.420;6.788;2023-12-20T13:42:28;9.77;;;2.73;;
41927;SDS011;27616;51.420;6.788;2023-12-20T13:44:54;12.47;;;3.70;;
41927;SDS011;27616;51.420;6.788;2023-12-20T13:47:19;10.10;;;3.37;;
41927;SDS011;27616;51.420;6.788;2023-12-20T13:49:45;8.03;;;3.37;;
41927;SDS011;27616;51.420;6.788;2023-12-20T13:52:10;7.43;;;3.47;;
41927;SDS011;27616;51.420;6.788;2023-12-20T13:54:37;11.13;;;3.67;;
41927;SDS011;27616;51.420;6.788;2023-12-20T13:57:03;8.90;;;3.33;;
41927;SDS011;27616;51.420;6.788;2023-12-20T13:59:28;9.03;;;3.40;;
41927;SDS011;27616;51.420;6.788;2023-12-20T14:01:54;30.00;;;8.70;;
41927;SDS011;27616;51.420;6.788;2023-12-20T14:04:20;8.20;;;3.70;;
41927;SDS011;27616;51.420;6.788;2023-12-20T14:06:46;8.23;;;3.93;;
41927;SDS011;27616;51.420;6.788;2023-12-20T14:09:12;10.60;;;3.47;;
41927;SDS011;27616;51.420;6.788;2023-12-20T14:11:38;10.70;;;4.10;;
41927;SDS011;27616;51.420;6.788;2023-12-20T14:14:06;15.10;;;3.97;;
41927;SDS011;27616;51.420;6.788;2023-12-20T14:16:33;13.57;;;4.33;;
41927;SDS011;27616;51.420;6.788;2023-12-20T14:18:59;10.90;;;3.37;;
41927;SDS011;27616;51.420;6.788;2023-12-20T14:21:24;14.33;;;4.70;;
41927;SDS011;27616;51.420;6.788;2023-12-20T14:23:50;17.47;;;4.50;;
41927;SDS011;27616;51.420;6.788;2023-12-20T14:26:17;14.13;;;4.17;;
41927;SDS011;27616;51.420;6.788;2023-12-20T14:28:43;13.73;;;4.40;;
41927;SDS011;27616;51.420;6.788;2023-12-20T14:31:09;11.77;;;3.70;;
41927;SDS011;27616;51.420;6.788;2023-12-20T14:33:35;17.00;;;4.30;;
41927;SDS011;27616;51.420;6.788;2023-12-20T14:36:03;9.70;;;3.73;;
41927;SDS011;27616;51.420;6.788;2023-12-20T14:38:30;10.87;;;3.40;;
41927;SDS011;27616;51.420;6.788;2023-12-20T14:40:56;9.97;;;3.50;;
41927;SDS011;27616;51.420;6.788;2023-12-20T14:43:22;13.43;;;3.77;;
41927;SDS011;27616;51.420;6.788;2023-12-20T14:45:48;8.87;;;3.53;;
41927;SDS011;27616;51.420;6.788;2023-12-20T14:48:14;11.57;;;3.33;;
41927;SDS011;27616;51.420;6.788;2023-12-20T14:50:40;10.53;;;3.17;;
41927;SDS011;27616;51.420;6.788;2023-12-20T14:53:07;11.20;;;3.17;;